Time;durP1;ratioP1;P1;durP2;ratioP2;P2;SDS_P1;SDS_P2;PMS_P1;PMS_P2;Temp;Humidity;BMP_temperature;BMP_pressure;BME280_temperature;BME280_humidity;BME280_pressure;Samples;Min_cycle;Max_cycle;Signal;HPM_P1;HPM_P2
2024/01/15 00:02:06;;;;;;;12.13;6.67;;;0.10;99.90;;;;;;5010255;28;20038;-85
2024/01/15 00:04:36;;;;;;;15.57;6.93;;;0.10;99.90;;;;;;5008867;28;20092;-85
2024/01/15 00:07:01;;;;;;;13.60;6.77;;;0.10;99.90;;;;;;4993505;28;20033;-84
2024/01/15 00:09:27;;;;;;;12.47;7.07;;;0.00;99.90;;;;;;5010358;28;20149;-86
2024/01/15 00:11:53;;;;;;;11.40;6.70;;;0.10;99.90;;;;;;5009350;28;20084;-86
2024/01/15 00:14:20;;;;;;;14.70;7.27;;;0.10;99.90;;;;;;5009307;28;20053;-86
2024/01/15 00:16:45;;;;;;;16.10;7.80;;;0.00;99.90;;;;;;5009923;28;20052;-85
2024/01/15 00:19:11;;;;;;;12.63;7.90;;;-0.10;99.90;;;;;;5009977;28;20029;-85
2024/01/15 00:21:36;;;;;;;14.43;7.77;;;-0.10;99.90;;;;;;4991687;28;20019;-85
2024/01/15 00:24:02;;;;;;;14.07;7.00;;;-0.10;99.90;;;;;;5008470;28;20477;-88
2024/01/15 00:26:28;;;;;;;13.97;6.97;;;-0.20;99.90;;;;;;5010440;28;20022;-84
2024/01/15 00:28:53;;;;;;;13.57;7.10;;;-0.20;99.90;;;;;;5008811;28;20038;-85
2024/01/15 00:31:19;;;;;;;13.00;7.50;;;-0.20;99.90;;;;;;5009985;28;20029;-87
2024/01/15 00:33:44;;;;;;;12.87;6.83;;;-0.20;99.90;;;;;;5010215;28;20425;-84
2024/01/15 00:36:10;;;;;;;14.43;7.20;;;-0.10;99.90;;;;;;5010470;28;20026;-85
2024/01/15 00:38:36;;;;;;;15.80;7.80;;;-0.20;99.90;;;;;;5008002;28;20037;-85
2024/01/15 00:41:02;;;;;;;13.27;7.60;;;-0.20;99.90;;;;;;5009072;28;20033;-85
2024/01/15 00:43:28;;;;;;;14.40;7.43;;;-0.10;99.90;;;;;;5009338;28;20022;-87
2024/01/15 00:45:53;;;;;;;14.50;7.87;;;-0.10;99.90;;;;;;5009022;28;20037;-87
2024/01/15 00:48:19;;;;;;;15.90;8.30;;;-0.20;99.90;;;;;;5008530;28;20113;-85
2024/01/15 00:50:44;;;;;;;16.77;9.03;;;-0.20;99.90;;;;;;5010469;28;20073;-85
2024/01/15 00:53:10;;;;;;;17.20;9.43;;;-0.30;99.90;;;;;;5008992;28;20057;-85
2024/01/15 00:55:37;;;;;;;18.77;9.90;;;-0.40;99.90;;;;;;5009206;28;20055;-86
2024/01/15 00:58:03;;;;;;;22.07;10.03;;;-0.60;99.90;;;;;;5009633;28;20022;-85
2024/01/15 01:00:28;;;;;;;18.60;10.00;;;-0.70;99.90;;;;;;5009287;28;20037;-85
2024/01/15 01:02:54;;;;;;;19.63;10.47;;;-0.70;99.90;;;;;;5009910;28;20121;-85
2024/01/15 01:05:20;;;;;;;22.77;9.90;;;-0.80;99.90;;;;;;5009264;28;20034;-85
2024/01/15 01:07:45;;;;;;;21.80;11.87;;;-0.80;99.90;;;;;;5008190;28;20034;-85
2024/01/15 01:10:11;;;;;;;20.70;10.23;;;-0.90;99.90;;;;;;5011504;28;20035;-85
2024/01/15 01:12:36;;;;;;;19.97;9.87;;;-0.80;99.90;;;;;;5008208;28;20045;-84
2024/01/15 01:15:02;;;;;;;18.33;10.37;;;-0.80;99.90;;;;;;5008118;28;20037;-87
2024/01/15 01:17:28;;;;;;;19.63;9.77;;;-0.80;99.90;;;;;;5009140;28;20022;-87
2024/01/15 01:19:53;;;;;;;19.17;10.93;;;-0.90;99.90;;;;;;5009609;28;20036;-86
2024/01/15 01:22:19;;;;;;;21.47;10.97;;;-0.90;99.90;;;;;;5010179;28;20056;-87
2024/01/15 01:24:44;;;;;;;19.13;8.93;;;-0.90;99.90;;;;;;5010897;28;20085;-85
2024/01/15 01:27:10;;;;;;;18.20;9.20;;;-0.90;99.90;;;;;;5007708;28;20042;-86
2024/01/15 01:29:35;;;;;;;19.17;10.13;;;-1.00;99.90;;;;;;5008561;28;20040;-87
2024/01/15 01:32:02;;;;;;;20.90;8.90;;;-1.00;99.90;;;;;;5008716;28;20026;-85
2024/01/15 01:34:30;;;;;;;19.90;8.50;;;-1.00;99.90;;;;;;5009496;28;20018;-85
2024/01/15 01:36:55;;;;;;;15.23;8.03;;;-1.00;99.90;;;;;;5008869;28;20037;-85
2024/01/15 01:39:21;;;;;;;16.60;7.87;;;-1.10;99.90;;;;;;5010798;28;21407;-85
2024/01/15 01:41:46;;;;;;;15.20;8.07;;;-1.10;99.90;;;;;;5009114;28;20029;-85
2024/01/15 01:44:12;;;;;;;17.07;8.40;;;-1.10;99.90;;;;;;5008139;28;20100;-85
2024/01/15 01:46:40;;;;;;;17.87;8.03;;;-1.20;99.90;;;;;;5008828;28;20068;-85
2024/01/15 01:49:06;;;;;;;16.00;8.00;;;-1.20;99.90;;;;;;5009105;28;20428;-86
2024/01/15 01:51:34;;;;;;;16.23;8.43;;;-1.20;99.90;;;;;;5010543;28;20030;-86
2024/01/15 01:54:00;;;;;;;14.30;8.37;;;-1.20;99.90;;;;;;5013501;28;20018;-87
2024/01/15 01:56:26;;;;;;;19.27;10.13;;;-1.20;99.90;;;;;;5013177;28;20029;-87
2024/01/15 01:58:52;;;;;;;14.17;7.70;;;-1.20;99.90;;;;;;5013245;28;20034;-87
2024/01/15 02:01:19;;;;;;;15.43;8.90;;;-1.30;99.90;;;;;;5013037;28;20061;-88
2024/01/15 02:03:45;;;;;;;16.37;9.30;;;-1.30;99.90;;;;;;5012128;28;20034;-87
2024/01/15 02:06:11;;;;;;;18.40;8.67;;;-1.40;99.90;;;;;;5012684;28;20032;-84
2024/01/15 02:08:36;;;;;;;17.47;8.90;;;-1.40;99.90;;;;;;5014578;28;20026;-87
2024/01/15 02:11:02;;;;;;;16.40;8.77;;;-1.40;99.90;;;;;;5012324;28;21064;-88
2024/01/15 02:13:28;;;;;;;17.03;8.03;;;-1.30;99.90;;;;;;5013515;28;20038;-85
2024/01/15 02:15:53;;;;;;;19.30;8.97;;;-1.30;99.90;;;;;;5012732;28;20034;-85
2024/01/15 02:18:20;;;;;;;19.13;9.60;;;-1.30;99.90;;;;;;5014237;28;20094;-85
2024/01/15 02:20:45;;;;;;;18.67;8.50;;;-1.40;99.90;;;;;;5012158;28;20101;-86
2024/01/15 02:23:15;;;;;;;17.63;8.70;;;-1.50;99.90;;;;;;5011299;28;20053;-88
2024/01/15 02:25:43;;;;;;;19.20;9.40;;;-1.50;99.90;;;;;;5009731;28;20203;-87
2024/01/15 02:28:10;;;;;;;19.17;9.87;;;-1.50;99.90;;;;;;5011761;28;20030;-86
2024/01/15 02:30:39;;;;;;;18.57;9.33;;;-1.60;99.90;;;;;;5010015;28;20497;-89
2024/01/15 02:33:05;;;;;;;18.77;9.10;;;-1.70;99.90;;;;;;5011291;28;20033;-88
2024/01/15 02:35:30;;;;;;;20.67;10.27;;;-1.60;99.90;;;;;;5011763;28;20083;-88
2024/01/15 02:37:56;;;;;;;18.57;9.47;;;-1.60;99.90;;;;;;5011273;28;20028;-85
2024/01/15 02:40:21;;;;;;;18.73;9.57;;;-1.80;99.90;;;;;;4994250;28;20142;-85
2024/01/15 02:42:47;;;;;;;19.77;9.73;;;-1.80;99.90;;;;;;5009268;28;20033;-88
2024/01/15 02:45:12;;;;;;;20.37;9.93;;;-1.90;99.90;;;;;;5009686;28;20050;-88
2024/01/15 02:47:38;;;;;;;19.47;9.73;;;-1.90;99.90;;;;;;5008299;28;20107;-85
2024/01/15 02:50:04;;;;;;;19.10;9.23;;;-2.00;99.90;;;;;;5008670;28;20672;-85
2024/01/15 02:52:29;;;;;;;22.10;10.87;;;-2.00;99.90;;;;;;5009413;28;20033;-85
2024/01/15 02:54:55;;;;;;;21.07;9.63;;;-1.90;99.90;;;;;;5010160;28;20036;-86
2024/01/15 02:57:20;;;;;;;18.17;9.33;;;-2.00;99.90;;;;;;4991127;28;20831;-87
2024/01/15 02:59:46;;;;;;;17.53;8.93;;;-2.00;99.90;;;;;;4992399;28;20041;-85
2024/01/15 03:02:11;;;;;;;18.77;9.83;;;-2.00;99.90;;;;;;5009734;28;20156;-85
2024/01/15 03:04:37;;;;;;;17.23;8.47;;;-2.00;99.90;;;;;;5008986;28;20042;-86
2024/01/15 03:07:03;;;;;;;17.57;8.90;;;-1.90;99.90;;;;;;5008713;28;20034;-87
2024/01/15 03:09:28;;;;;;;20.07;9.30;;;-2.00;99.90;;;;;;5010552;28;20026;-86
2024/01/15 03:11:54;;;;;;;17.60;8.87;;;-2.00;99.90;;;;;;5009761;28;20037;-86
2024/01/15 03:14:20;;;;;;;16.17;8.27;;;-1.90;99.90;;;;;;5010758;28;20113;-88
2024/01/15 03:16:45;;;;;;;15.57;8.27;;;-1.90;99.90;;;;;;5010487;28;20057;-86
2024/01/15 03:19:11;;;;;;;16.17;8.20;;;-1.90;99.90;;;;;;5009880;28;20026;-87
2024/01/15 03:21:37;;;;;;;17.10;8.17;;;-1.90;99.90;;;;;;4992346;28;20108;-86
2024/01/15 03:24:02;;;;;;;17.17;8.80;;;-1.90;99.90;;;;;;5010763;28;20125;-87
2024/01/15 03:26:28;;;;;;;16.03;8.50;;;-2.00;99.90;;;;;;5008188;28;20032;-84
2024/01/15 03:28:53;;;;;;;16.17;7.83;;;-2.00;99.90;;;;;;5008633;28;20022;-87
2024/01/15 03:31:19;;;;;;;15.37;7.97;;;-2.00;99.90;;;;;;5007987;28;20492;-88
2024/01/15 03:33:44;;;;;;;16.00;8.40;;;-2.00;99.90;;;;;;5010154;28;20026;-86
2024/01/15 03:36:10;;;;;;;15.13;8.03;;;-2.00;99.90;;;;;;5009957;28;20022;-85
2024/01/15 03:38:40;;;;;;;19.87;9.07;;;-2.00;99.90;;;;;;5010405;28;20060;-85
2024/01/15 03:41:06;;;;;;;15.70;8.73;;;-2.00;99.90;;;;;;5011252;28;20151;-87
2024/01/15 03:43:31;;;;;;;17.33;8.63;;;-2.10;99.90;;;;;;5010411;28;20054;-87
2024/01/15 03:45:57;;;;;;;14.80;7.40;;;-2.10;99.90;;;;;;5011106;28;20100;-85
2024/01/15 03:48:22;;;;;;;17.53;8.50;;;-2.10;99.90;;;;;;5008184;28;20302;-85
2024/01/15 03:50:48;;;;;;;16.60;8.57;;;-2.10;99.90;;;;;;5009700;28;20168;-87
2024/01/15 03:53:13;;;;;;;18.20;8.80;;;-2.20;99.90;;;;;;5011072;28;21664;-89
2024/01/15 03:55:39;;;;;;;16.07;8.47;;;-2.20;99.90;;;;;;5010812;28;20034;-85
2024/01/15 03:58:04;;;;;;;15.30;7.47;;;-2.10;99.90;;;;;;5010831;28;20023;-86
2024/01/15 04:00:30;;;;;;;18.70;9.07;;;-2.10;99.90;;;;;;5010839;28;20034;-86
2024/01/15 04:02:55;;;;;;;16.77;8.27;;;-2.10;99.90;;;;;;5010909;28;21009;-87
2024/01/15 04:05:21;;;;;;;16.00;7.93;;;-2.10;99.90;;;;;;5011014;28;20109;-87
2024/01/15 04:07:46;;;;;;;13.97;7.63;;;-2.20;99.90;;;;;;5010142;28;20489;-86
2024/01/15 04:10:12;;;;;;;14.43;7.70;;;-2.10;99.90;;;;;;5010117;28;20026;-87
2024/01/15 04:12:37;;;;;;;15.80;8.20;;;-2.10;99.90;;;;;;5008120;28;20037;-87
2024/01/15 04:15:03;;;;;;;16.13;9.13;;;-2.10;99.90;;;;;;4991515;28;20989;-85
2024/01/15 04:17:29;;;;;;;14.90;7.63;;;-2.10;99.90;;;;;;5007573;28;20069;-88
2024/01/15 04:19:55;;;;;;;15.43;7.93;;;-2.10;99.90;;;;;;5008861;28;20033;-85
2024/01/15 04:22:20;;;;;;;17.10;8.13;;;-2.10;99.90;;;;;;5009305;28;20033;-86
2024/01/15 04:24:46;;;;;;;14.90;7.50;;;-2.00;99.90;;;;;;5010185;28;21569;-85
2024/01/15 04:27:11;;;;;;;16.20;7.53;;;-2.00;99.90;;;;;;5008376;28;20026;-86
2024/01/15 04:29:40;;;;;;;15.97;7.43;;;-2.00;99.90;;;;;;5008909;28;20021;-87
2024/01/15 04:32:06;;;;;;;14.13;7.40;;;-2.00;99.90;;;;;;5009484;28;20048;-87
2024/01/15 04:34:31;;;;;;;14.93;8.37;;;-2.00;99.90;;;;;;5009845;28;20029;-85
2024/01/15 04:36:57;;;;;;;14.80;7.90;;;-2.00;99.90;;;;;;5010027;28;20101;-85
2024/01/15 04:39:23;;;;;;;15.13;8.20;;;-2.00;99.90;;;;;;4990807;28;20141;-85
2024/01/15 04:41:48;;;;;;;16.03;8.27;;;-2.00;99.90;;;;;;5008967;28;20523;-85
2024/01/15 04:44:15;;;;;;;14.70;7.60;;;-2.00;99.90;;;;;;5008918;28;20148;-90
2024/01/15 04:46:40;;;;;;;14.83;7.40;;;-1.90;99.90;;;;;;5009999;28;20135;-86
2024/01/15 04:49:06;;;;;;;15.60;7.80;;;-1.90;99.90;;;;;;5007325;28;20025;-88
2024/01/15 04:51:32;;;;;;;15.23;8.13;;;-1.90;99.90;;;;;;4990537;28;20480;-88
2024/01/15 04:53:57;;;;;;;13.97;7.20;;;-1.90;99.90;;;;;;5010070;28;20030;-86
2024/01/15 04:56:23;;;;;;;13.93;7.20;;;-1.90;99.90;;;;;;5008460;28;20108;-91
2024/01/15 04:58:48;;;;;;;14.27;7.83;;;-1.80;99.90;;;;;;5008806;28;20063;-85
2024/01/15 05:01:16;;;;;;;14.47;7.00;;;-1.80;99.90;;;;;;4992238;28;20489;-85
2024/01/15 05:03:41;;;;;;;13.07;7.43;;;-1.70;99.90;;;;;;5009792;28;20401;-85
2024/01/15 05:06:07;;;;;;;15.53;7.07;;;-1.80;99.90;;;;;;5009569;28;20029;-85
2024/01/15 05:08:32;;;;;;;15.30;7.00;;;-1.80;99.90;;;;;;5008420;28;20080;-85
2024/01/15 05:10:58;;;;;;;13.97;8.20;;;-1.70;99.90;;;;;;5003709;28;20058;-86
2024/01/15 05:13:25;;;;;;;13.63;7.33;;;-1.70;99.90;;;;;;5001117;28;20034;-85
2024/01/15 05:15:50;;;;;;;17.43;8.00;;;-1.80;99.90;;;;;;5001422;28;20562;-87
2024/01/15 05:18:16;;;;;;;15.70;7.23;;;-1.80;99.90;;;;;;5001295;28;20029;-85
2024/01/15 05:20:42;;;;;;;14.90;7.17;;;-1.80;99.90;;;;;;4984123;28;20030;-85
2024/01/15 05:23:08;;;;;;;12.20;6.73;;;-1.80;99.90;;;;;;5000841;28;20034;-87
2024/01/15 05:25:33;;;;;;;12.40;7.07;;;-1.80;99.90;;;;;;4984047;28;20129;-85
2024/01/15 05:27:59;;;;;;;13.33;6.37;;;-1.80;99.90;;;;;;5006348;28;20033;-85
2024/01/15 05:30:25;;;;;;;11.93;7.03;;;-1.80;99.90;;;;;;5007704;28;20044;-86
2024/01/15 05:32:50;;;;;;;14.83;7.67;;;-1.80;99.90;;;;;;5006631;28;21296;-87
2024/01/15 05:35:16;;;;;;;15.30;7.00;;;-1.80;99.90;;;;;;5006531;28;20046;-85
2024/01/15 05:37:45;;;;;;;13.87;7.03;;;-1.80;99.90;;;;;;4987854;28;20026;-85
2024/01/15 05:40:12;;;;;;;13.43;7.33;;;-1.70;99.90;;;;;;5006056;28;20022;-85
2024/01/15 05:42:37;;;;;;;13.97;7.00;;;-1.70;99.90;;;;;;5008290;28;20037;-85
2024/01/15 05:45:04;;;;;;;11.30;6.30;;;-1.70;99.90;;;;;;5007195;28;20038;-85
2024/01/15 05:47:30;;;;;;;11.23;6.43;;;-1.60;99.90;;;;;;5004598;28;20062;-85
2024/01/15 05:49:57;;;;;;;15.17;7.37;;;-1.60;99.90;;;;;;5006204;28;20192;-85
2024/01/15 05:52:23;;;;;;;12.70;6.40;;;-1.60;99.90;;;;;;5007168;28;20101;-80
2024/01/15 05:54:49;;;;;;;13.47;6.73;;;-1.60;99.90;;;;;;5007605;28;20033;-80
2024/01/15 05:57:15;;;;;;;14.53;7.27;;;-1.60;99.90;;;;;;5011692;28;20057;-80
2024/01/15 05:59:40;;;;;;;10.80;6.20;;;-1.60;99.90;;;;;;5011935;28;20060;-80
2024/01/15 06:02:06;;;;;;;11.73;6.17;;;-1.60;99.90;;;;;;5007212;28;20061;-83
2024/01/15 06:04:32;;;;;;;11.47;6.07;;;-1.60;99.90;;;;;;5006574;28;20105;-83
2024/01/15 06:06:58;;;;;;;10.60;5.73;;;-1.70;99.90;;;;;;5005947;28;20790;-83
2024/01/15 06:09:23;;;;;;;11.57;5.77;;;-1.70;99.90;;;;;;5004689;28;20033;-84
2024/01/15 06:11:49;;;;;;;11.97;5.50;;;-1.70;99.90;;;;;;4986867;28;20030;-83
2024/01/15 06:14:14;;;;;;;14.33;6.43;;;-1.60;99.90;;;;;;5005260;28;20029;-84
2024/01/15 06:16:40;;;;;;;12.37;5.83;;;-1.60;99.90;;;;;;5003165;28;20489;-84
2024/01/15 06:19:05;;;;;;;11.30;5.90;;;-1.60;99.90;;;;;;5004052;28;20030;-88
2024/01/15 06:21:31;;;;;;;10.97;5.80;;;-1.60;99.90;;;;;;5004459;28;20045;-84
2024/01/15 06:23:56;;;;;;;13.23;5.77;;;-1.60;99.90;;;;;;5004653;28;20104;-84
2024/01/15 06:26:23;;;;;;;10.93;5.90;;;-1.50;99.90;;;;;;5005078;28;20390;-83
2024/01/15 06:28:49;;;;;;;10.53;6.03;;;-1.50;99.90;;;;;;5003289;28;20048;-84
2024/01/15 06:31:14;;;;;;;11.93;6.63;;;-1.50;99.90;;;;;;5005161;28;20030;-83
2024/01/15 06:33:40;;;;;;;10.30;5.73;;;-1.50;99.90;;;;;;5004060;28;20467;-84
2024/01/15 06:36:06;;;;;;;13.90;6.13;;;-1.50;99.90;;;;;;5003934;28;20034;-84
2024/01/15 06:38:32;;;;;;;9.57;5.33;;;-1.60;99.90;;;;;;5002863;28;20419;-83
2024/01/15 06:40:57;;;;;;;13.10;6.07;;;-1.60;99.90;;;;;;5004001;28;20026;-83
2024/01/15 06:43:23;;;;;;;10.53;5.87;;;-1.50;99.90;;;;;;5003897;28;21191;-83
2024/01/15 06:45:48;;;;;;;13.00;6.70;;;-1.60;99.90;;;;;;5002287;28;20095;-85
2024/01/15 06:48:16;;;;;;;11.60;5.90;;;-1.50;99.90;;;;;;5003330;28;20017;-83
2024/01/15 06:50:44;;;;;;;12.83;6.97;;;-1.50;99.90;;;;;;5003617;28;20618;-83
2024/01/15 06:53:10;;;;;;;11.53;6.10;;;-1.60;99.90;;;;;;5002544;28;20018;-83
2024/01/15 06:55:35;;;;;;;12.30;6.97;;;-1.60;99.90;;;;;;5002662;28;20136;-85
2024/01/15 06:58:01;;;;;;;14.37;6.73;;;-1.60;99.90;;;;;;5002802;28;20080;-84
2024/01/15 07:00:29;;;;;;;14.40;6.63;;;-1.60;99.90;;;;;;5002099;28;20053;-83
2024/01/15 07:02:54;;;;;;;15.10;8.17;;;-1.60;99.90;;;;;;5003224;28;20092;-84
2024/01/15 07:05:24;;;;;;;16.47;7.47;;;-1.60;99.90;;;;;;5003780;28;20116;-85
2024/01/15 07:07:49;;;;;;;14.47;7.43;;;-1.60;99.90;;;;;;5003099;28;20397;-84
2024/01/15 07:10:15;;;;;;;14.37;7.37;;;-1.60;99.90;;;;;;4983604;28;20038;-86
2024/01/15 07:12:44;;;;;;;15.97;8.37;;;-1.60;99.90;;;;;;5002581;28;20062;-84
2024/01/15 07:15:10;;;;;;;15.80;9.03;;;-1.60;99.90;;;;;;5003388;28;20042;-84
2024/01/15 07:17:39;;;;;;;15.20;7.83;;;-1.60;99.90;;;;;;5004247;28;21473;-83
2024/01/15 07:20:08;;;;;;;16.60;8.23;;;-1.60;99.90;;;;;;5002084;28;20060;-85
2024/01/15 07:22:35;;;;;;;13.30;7.07;;;-1.60;99.90;;;;;;5003549;28;20030;-85
2024/01/15 07:25:01;;;;;;;13.53;7.33;;;-1.50;99.90;;;;;;5000538;28;20045;-85
2024/01/15 07:27:26;;;;;;;15.37;7.27;;;-1.50;99.90;;;;;;5005267;28;20029;-84
2024/01/15 07:29:52;;;;;;;15.93;7.60;;;-1.50;99.90;;;;;;4984592;28;20028;-86
2024/01/15 07:32:18;;;;;;;17.40;8.40;;;-1.50;99.90;;;;;;5001241;28;20029;-84
2024/01/15 07:34:43;;;;;;;14.50;8.00;;;-1.50;99.90;;;;;;5001260;28;20048;-83
2024/01/15 07:37:09;;;;;;;15.63;8.13;;;-1.50;99.90;;;;;;5003203;28;20160;-83
2024/01/15 07:39:34;;;;;;;16.27;8.23;;;-1.40;99.90;;;;;;5002060;28;20018;-85
2024/01/15 07:42:00;;;;;;;15.87;8.13;;;-1.40;99.90;;;;;;5003329;28;20076;-82
2024/01/15 07:44:26;;;;;;;19.40;8.37;;;-1.40;99.90;;;;;;4984024;28;20080;-83
2024/01/15 07:46:51;;;;;;;14.87;7.80;;;-1.40;99.90;;;;;;5001541;28;20141;-82
2024/01/15 07:49:17;;;;;;;14.63;7.67;;;-1.30;99.90;;;;;;5003083;28;20057;-82
2024/01/15 07:51:45;;;;;;;14.10;7.23;;;-1.20;99.90;;;;;;5007688;28;20029;-81
2024/01/15 07:54:11;;;;;;;14.77;7.67;;;-1.20;99.90;;;;;;5006047;28;20076;-86
2024/01/15 07:56:54;;;;;;;14.60;7.27;;;-1.20;99.90;;;;;;5008529;28;20084;-82
2024/01/15 07:59:19;;;;;;;13.90;7.30;;;-1.20;99.90;;;;;;5004853;28;20059;-82
2024/01/15 08:01:45;;;;;;;13.73;7.13;;;-1.20;99.90;;;;;;5003629;28;20025;-84
2024/01/15 08:04:12;;;;;;;13.70;7.97;;;-1.10;99.90;;;;;;4985336;28;20877;-82
2024/01/15 08:06:38;;;;;;;14.57;7.70;;;-1.10;99.90;;;;;;5000870;28;20061;-84
2024/01/15 08:09:04;;;;;;;15.93;7.60;;;-1.10;99.90;;;;;;5003305;28;20119;-83
2024/01/15 08:11:30;;;;;;;15.23;7.33;;;-1.10;99.90;;;;;;5001849;28;20030;-83
2024/01/15 08:13:56;;;;;;;16.77;8.47;;;-1.10;99.90;;;;;;5003873;28;21141;-83
2024/01/15 08:16:21;;;;;;;13.63;7.40;;;-1.00;99.90;;;;;;5004286;28;20032;-83
2024/01/15 08:18:47;;;;;;;14.23;7.53;;;-1.00;99.90;;;;;;5001898;28;20137;-83
2024/01/15 08:21:13;;;;;;;13.40;6.70;;;-1.00;99.90;;;;;;5002244;28;20037;-82
2024/01/15 08:23:39;;;;;;;14.77;7.93;;;-1.00;99.90;;;;;;5008469;28;20026;-89
2024/01/15 08:26:04;;;;;;;13.93;7.67;;;-1.00;99.90;;;;;;5012334;28;20034;-84
2024/01/15 08:28:30;;;;;;;14.00;7.23;;;-1.00;99.90;;;;;;5004733;28;20404;-84
2024/01/15 08:30:56;;;;;;;13.13;6.80;;;-0.90;99.90;;;;;;5006939;28;20916;-84
2024/01/15 08:33:21;;;;;;;15.37;7.40;;;-0.90;99.90;;;;;;5004542;28;20658;-85
2024/01/15 08:35:48;;;;;;;15.37;7.03;;;-0.90;99.90;;;;;;4986924;28;20118;-84
2024/01/15 08:38:14;;;;;;;11.47;6.47;;;-0.90;99.90;;;;;;5003290;28;20034;-84
2024/01/15 08:40:39;;;;;;;12.57;6.77;;;-0.80;99.90;;;;;;5002697;28;20477;-85
2024/01/15 08:43:06;;;;;;;13.83;6.70;;;-0.80;99.90;;;;;;5004476;28;20026;-84
2024/01/15 08:45:32;;;;;;;12.47;7.27;;;-0.90;99.90;;;;;;5004708;28;20025;-84
2024/01/15 08:47:57;;;;;;;12.47;6.63;;;-0.90;99.90;;;;;;5004260;28;20099;-86
2024/01/15 08:50:23;;;;;;;13.10;7.27;;;-0.90;99.90;;;;;;4986245;28;20235;-84
2024/01/15 08:52:49;;;;;;;13.17;7.13;;;-0.90;99.90;;;;;;5003302;28;20159;-85
2024/01/15 08:55:14;;;;;;;14.20;6.97;;;-0.90;99.90;;;;;;4987547;28;20057;-84
2024/01/15 08:57:40;;;;;;;12.93;7.03;;;-0.80;99.90;;;;;;4987180;28;20034;-85
2024/01/15 09:00:08;;;;;;;14.57;7.53;;;-0.70;99.90;;;;;;5002913;28;20105;-84
2024/01/15 09:02:34;;;;;;;14.30;7.47;;;-0.80;99.90;;;;;;4987364;28;20551;-84
2024/01/15 09:05:00;;;;;;;13.83;7.03;;;-0.70;99.90;;;;;;5005259;28;20053;-84
2024/01/15 09:07:26;;;;;;;11.37;5.93;;;-0.70;99.90;;;;;;5005831;28;20030;-85
2024/01/15 09:09:52;;;;;;;12.67;7.13;;;-0.70;99.90;;;;;;5002387;28;20018;-84
2024/01/15 09:12:20;;;;;;;15.33;8.53;;;-0.70;99.90;;;;;;5007262;28;20037;-81
2024/01/15 09:14:46;;;;;;;14.80;7.00;;;-0.60;99.90;;;;;;5011121;28;20475;-82
2024/01/15 09:17:12;;;;;;;13.77;7.10;;;-0.60;99.90;;;;;;4999645;28;20026;-82
2024/01/15 09:19:39;;;;;;;12.77;6.60;;;-0.60;99.90;;;;;;5001339;28;20313;-81
2024/01/15 09:22:05;;;;;;;14.73;7.00;;;-0.50;99.90;;;;;;5004274;28;20034;-84
2024/01/15 09:24:31;;;;;;;14.77;6.77;;;-0.60;99.90;;;;;;5003306;28;20033;-84
2024/01/15 09:26:56;;;;;;;12.63;6.50;;;-0.60;99.90;;;;;;5001232;28;20061;-83
2024/01/15 09:29:23;;;;;;;11.17;6.13;;;-0.50;99.90;;;;;;5001724;28;20018;-83
2024/01/15 09:31:50;;;;;;;13.40;7.77;;;-0.50;99.90;;;;;;5002132;28;20101;-83
2024/01/15 09:34:16;;;;;;;12.83;6.67;;;-0.50;99.90;;;;;;5002497;28;20013;-83
2024/01/15 09:36:42;;;;;;;10.07;6.23;;;-0.50;99.90;;;;;;5001673;28;20030;-83
2024/01/15 09:39:10;;;;;;;11.93;6.30;;;-0.50;99.90;;;;;;5003471;28;20739;-83
2024/01/15 09:41:36;;;;;;;13.03;6.00;;;-0.40;99.90;;;;;;5002909;28;20065;-83
2024/01/15 09:44:03;;;;;;;12.50;6.70;;;-0.40;99.90;;;;;;5002824;28;20049;-84
2024/01/15 09:46:31;;;;;;;10.20;6.23;;;-0.30;99.90;;;;;;5000443;28;20713;-83
2024/01/15 09:48:58;;;;;;;11.50;6.00;;;-0.30;99.90;;;;;;4999432;28;20104;-82
2024/01/15 09:51:24;;;;;;;9.13;5.37;;;-0.20;99.90;;;;;;5002868;28;20113;-81
2024/01/15 09:53:50;;;;;;;10.37;5.23;;;-0.20;99.90;;;;;;5003403;28;20121;-81
2024/01/15 09:56:16;;;;;;;9.10;5.20;;;-0.20;99.90;;;;;;4984510;28;20057;-81
2024/01/15 09:58:42;;;;;;;9.80;6.47;;;-0.20;99.90;;;;;;4986168;28;20034;-81
2024/01/15 10:01:08;;;;;;;11.20;6.53;;;-0.20;99.90;;;;;;5002539;28;20109;-81
2024/01/15 10:03:34;;;;;;;9.63;6.07;;;-0.20;99.90;;;;;;5002113;28;20061;-81
2024/01/15 10:06:00;;;;;;;10.17;5.60;;;-0.20;99.90;;;;;;5001580;28;20062;-83
2024/01/15 10:08:25;;;;;;;9.53;4.97;;;-0.10;99.90;;;;;;5000127;28;20054;-82
2024/01/15 10:10:51;;;;;;;9.70;5.03;;;-0.10;99.90;;;;;;5000345;28;20139;-83
2024/01/15 10:13:17;;;;;;;10.77;5.10;;;-0.10;99.90;;;;;;5004731;28;20069;-81
2024/01/15 10:15:46;;;;;;;9.87;5.13;;;0.00;99.90;;;;;;5004359;28;20043;-81
2024/01/15 10:18:12;;;;;;;9.80;5.60;;;0.00;99.90;;;;;;5006086;28;20044;-81
2024/01/15 10:20:39;;;;;;;9.90;5.00;;;0.00;99.90;;;;;;5005502;28;20444;-80
2024/01/15 10:23:05;;;;;;;9.07;4.90;;;0.10;99.90;;;;;;5004447;28;20120;-81
2024/01/15 10:25:30;;;;;;;9.67;4.80;;;0.10;99.90;;;;;;5002749;28;20022;-81
2024/01/15 10:28:03;;;;;;;8.17;4.97;;;0.00;99.90;;;;;;5001959;28;20028;-80
2024/01/15 10:30:30;;;;;;;8.47;4.80;;;0.10;99.90;;;;;;5002783;28;20676;-80
2024/01/15 10:33:00;;;;;;;9.60;5.43;;;0.10;99.90;;;;;;5002319;28;20041;-80
2024/01/15 10:35:28;;;;;;;9.57;5.20;;;0.10;99.90;;;;;;5002044;28;20037;-79
2024/01/15 10:37:53;;;;;;;8.53;4.70;;;0.10;99.90;;;;;;5001731;28;20044;-79
2024/01/15 10:40:19;;;;;;;7.57;4.60;;;0.20;99.90;;;;;;5002898;28;20030;-80
2024/01/15 10:42:44;;;;;;;10.70;5.13;;;0.20;99.90;;;;;;5003835;28;20615;-80
2024/01/15 10:45:10;;;;;;;10.57;4.97;;;0.20;99.90;;;;;;5003843;28;20022;-81
2024/01/15 10:47:36;;;;;;;12.60;5.27;;;0.20;99.90;;;;;;5002159;28;20515;-80
2024/01/15 10:50:03;;;;;;;8.53;5.07;;;0.20;99.90;;;;;;5003421;28;20034;-80
2024/01/15 10:52:29;;;;;;;9.90;4.97;;;0.20;99.90;;;;;;5004367;28;20409;-80
2024/01/15 10:54:55;;;;;;;8.93;4.93;;;0.20;99.90;;;;;;5002845;28;20022;-80
2024/01/15 10:57:22;;;;;;;7.83;4.53;;;0.10;99.90;;;;;;5003670;28;20065;-79
2024/01/15 10:59:47;;;;;;;8.37;4.50;;;0.10;99.90;;;;;;5001080;28;20026;-81
2024/01/15 11:02:14;;;;;;;8.23;4.60;;;0.10;99.90;;;;;;5003286;28;20041;-82
2024/01/15 11:04:40;;;;;;;10.63;6.00;;;0.10;99.90;;;;;;5001986;28;20080;-81
2024/01/15 11:07:06;;;;;;;9.27;4.73;;;0.20;99.90;;;;;;5002803;28;20063;-81
2024/01/15 11:09:32;;;;;;;9.23;5.13;;;0.20;99.90;;;;;;5003461;28;20061;-71
2024/01/15 11:12:12;;;;;;;8.13;4.87;;;0.30;99.90;;;;;;5000321;28;20152;-71
2024/01/15 11:14:43;;;;;;;9.00;4.70;;;0.30;99.90;;;;;;5002795;28;20087;-82
2024/01/15 11:17:09;;;;;;;10.30;5.40;;;0.50;99.90;;;;;;5010565;28;20022;-82
2024/01/15 11:19:46;;;;;;;10.93;5.07;;;0.50;99.90;;;;;;4992010;28;20396;-82
2024/01/15 11:22:47;;;;;;;10.73;5.50;;;0.50;99.90;;;;;;5011705;28;20045;-82
2024/01/15 11:25:14;;;;;;;13.13;5.50;;;0.40;99.90;;;;;;5006619;28;20761;-82
2024/01/15 11:27:44;;;;;;;9.80;5.97;;;0.30;99.90;;;;;;5010172;28;20013;-83
2024/01/15 11:30:11;;;;;;;10.90;5.63;;;0.30;99.90;;;;;;4992444;28;20025;-82
2024/01/15 11:32:41;;;;;;;10.27;5.40;;;0.30;99.90;;;;;;5010504;28;20106;-82
2024/01/15 11:35:08;;;;;;;10.33;5.43;;;0.40;99.90;;;;;;5009744;28;21281;-82
2024/01/15 11:37:56;;;;;;;7.60;4.67;;;0.50;99.90;;;;;;5010176;28;20515;-82
2024/01/15 11:40:35;;;;;;;9.27;4.80;;;0.60;99.90;;;;;;5010946;28;20046;-82
2024/01/15 11:43:02;;;;;;;9.47;4.80;;;0.60;99.90;;;;;;5010132;28;20041;-82
2024/01/15 11:45:29;;;;;;;9.43;4.93;;;0.70;99.90;;;;;;5009268;28;20033;-82
2024/01/15 11:48:11;;;;;;;9.73;5.20;;;0.70;99.90;;;;;;5010341;28;20192;-82
2024/01/15 11:50:49;;;;;;;9.27;5.10;;;0.80;99.90;;;;;;5009591;28;20045;-82
2024/01/15 11:53:25;;;;;;;10.10;4.83;;;0.80;99.90;;;;;;5005193;28;20034;-87
2024/01/15 11:55:52;;;;;;;9.77;4.90;;;0.90;99.90;;;;;;5007709;28;20060;-86
2024/01/15 11:58:17;;;;;;;11.57;5.53;;;0.90;99.90;;;;;;5007241;28;20026;-86
2024/01/15 12:00:44;;;;;;;8.97;4.87;;;1.00;99.90;;;;;;5007829;28;20053;-86
2024/01/15 12:03:10;;;;;;;11.50;5.10;;;1.10;99.90;;;;;;5003996;28;20496;-86
2024/01/15 12:05:38;;;;;;;11.77;5.30;;;1.10;99.90;;;;;;5006291;28;20044;-86
2024/01/15 12:08:10;;;;;;;10.77;5.07;;;1.20;99.90;;;;;;5004902;28;20081;-87
2024/01/15 12:10:35;;;;;;;10.30;4.57;;;1.30;99.90;;;;;;4992440;28;20740;-87
2024/01/15 12:13:12;;;;;;;10.03;4.30;;;1.50;99.90;;;;;;4996482;28;20033;-88
2024/01/15 12:15:42;;;;;;;10.40;4.20;;;1.60;99.90;;;;;;4998710;28;20978;-87
2024/01/15 12:18:09;;;;;;;7.93;4.07;;;1.60;99.90;;;;;;4981276;28;20041;-87
2024/01/15 12:20:35;;;;;;;9.93;4.20;;;1.60;99.90;;;;;;4998288;28;20076;-88
2024/01/15 12:23:03;;;;;;;8.43;4.47;;;1.50;99.90;;;;;;4998233;28;20018;-90
2024/01/15 12:25:30;;;;;;;6.47;4.33;;;1.50;99.90;;;;;;5001237;28;20893;-89
2024/01/15 12:27:56;;;;;;;8.03;4.30;;;1.50;99.90;;;;;;5000083;28;20033;-88
2024/01/15 12:30:22;;;;;;;6.83;3.60;;;1.50;99.90;;;;;;4983772;28;20021;-86
2024/01/15 12:32:47;;;;;;;7.60;4.03;;;1.40;99.90;;;;;;4999656;28;20046;-87
2024/01/15 12:35:14;;;;;;;8.00;4.00;;;1.40;99.90;;;;;;4980033;28;20052;-87
2024/01/15 12:37:40;;;;;;;9.37;3.73;;;1.40;99.90;;;;;;4998711;28;20030;-85